createdAt,value
2022-12-19T00:02:26.119Z,6.65
2022-12-19T00:07:35.062Z,7.30
2022-12-19T00:12:44.087Z,7.86
2022-12-19T00:17:53.029Z,8.20
2022-12-19T00:23:02.331Z,8.02
2022-12-19T00:28:11.187Z,7.20
2022-12-19T00:33:20.186Z,7.88
2022-12-19T00:38:29.043Z,7.06
2022-12-19T00:43:38.354Z,7.00
2022-12-19T00:48:46.992Z,7.24
2022-12-19T00:53:56.300Z,7.38
2022-12-19T00:59:04.981Z,7.46
2022-12-19T01:04:30.307Z,7.04
2022-12-19T01:09:22.617Z,7.15
2022-12-19T01:14:32.160Z,7.02
2022-12-19T01:19:44.359Z,7.07
2022-12-19T01:24:49.640Z,7.35
2022-12-19T01:29:58.972Z,7.21
2022-12-19T01:35:13.381Z,7.18
2022-12-19T01:40:16.370Z,7.26
2022-12-19T01:45:32.010Z,7.49
2022-12-19T01:50:34.182Z,7.63
2022-12-19T01:55:43.565Z,7.77
2022-12-19T02:00:52.470Z,7.47
2022-12-19T02:06:01.426Z,6.86
2022-12-19T02:11:10.396Z,7.30
2022-12-19T02:16:19.441Z,7.32
2022-12-19T02:21:27.486Z,6.82
2022-12-19T02:26:37.415Z,7.04
2022-12-19T02:31:46.335Z,6.43
2022-12-19T02:36:55.955Z,6.61
2022-12-19T02:42:04.678Z,6.38
2022-12-19T02:47:13.720Z,6.25
2022-12-19T02:52:22.782Z,5.97
2022-12-19T02:57:31.743Z,6.14
2022-12-19T03:02:40.825Z,5.89
2022-12-19T03:07:49.655Z,6.02
2022-12-19T03:12:58.167Z,6.23
2022-12-19T03:18:07.264Z,5.81
2022-12-19T03:23:16.280Z,5.97
2022-12-19T03:28:25.323Z,5.97
2022-12-19T03:33:34.808Z,7.12
2022-12-19T03:38:44.431Z,6.72
2022-12-19T03:43:53.209Z,7.52
2022-12-19T03:49:02.029Z,7.12
2022-12-19T03:54:10.790Z,6.50
2022-12-19T03:59:19.471Z,6.97
2022-12-19T04:04:28.086Z,7.50
2022-12-19T04:09:36.779Z,6.89
2022-12-19T04:14:46.246Z,7.46
2022-12-19T04:19:55.468Z,6.84
2022-12-19T04:25:04.521Z,7.06
2022-12-19T04:30:13.763Z,6.60
2022-12-19T04:35:22.697Z,6.79
2022-12-19T04:40:35.451Z,6.91
2022-12-19T04:45:41.387Z,6.75
2022-12-19T04:50:50.361Z,6.63
2022-12-19T04:55:59.303Z,6.96
2022-12-19T05:01:08.665Z,6.89
2022-12-19T05:06:17.881Z,6.75
2022-12-19T05:11:27.059Z,7.07
2022-12-19T05:16:36.600Z,6.84
2022-12-19T05:21:46.085Z,6.28
2022-12-19T05:26:54.833Z,6.48
2022-12-19T05:32:04.841Z,6.63
2022-12-19T05:37:04.180Z,6.06
2022-12-19T05:42:13.161Z,6.61
2022-12-19T05:47:22.106Z,7.07
2022-12-19T05:52:32.000Z,9.22
2022-12-19T05:57:40.813Z,7.50
2022-12-19T06:02:50.397Z,6.88
2022-12-19T06:07:59.507Z,9.54
2022-12-19T06:13:08.820Z,7.42
2022-12-19T06:18:18.500Z,6.38
2022-12-19T06:23:28.073Z,6.65
2022-12-19T06:28:37.865Z,7.01
2022-12-19T06:33:47.127Z,7.95
2022-12-19T06:38:56.925Z,7.31
2022-12-19T06:44:06.313Z,6.87
2022-12-19T06:49:15.251Z,6.42
2022-12-19T06:54:25.215Z,6.44
2022-12-19T06:59:34.090Z,6.45
2022-12-19T07:04:46.561Z,6.21
2022-12-19T07:09:45.668Z,5.88
2022-12-19T07:14:55.190Z,6.18
2022-12-19T07:20:04.422Z,6.42
2022-12-19T07:25:14.275Z,5.97
2022-12-19T07:30:23.672Z,5.32
2022-12-19T07:35:33.043Z,5.55
2022-12-19T07:40:43.096Z,5.43
2022-12-19T07:45:43.063Z,5.39
2022-12-19T07:50:51.788Z,5.54
2022-12-19T07:56:01.863Z,5.37
2022-12-19T08:01:00.567Z,5.06
2022-12-19T08:06:10.894Z,5.46
2022-12-19T08:11:09.860Z,5.00
2022-12-19T08:16:20.419Z,4.81
2022-12-19T08:21:20.144Z,6.11
2022-12-19T08:26:32.545Z,4.67
2022-12-19T08:31:39.177Z,4.16
2022-12-19T08:36:48.723Z,4.30
2022-12-19T08:41:57.861Z,5.88
2022-12-19T08:47:07.627Z,4.10
2022-12-19T08:52:16.954Z,4.32
2022-12-19T08:57:26.400Z,3.93
2022-12-19T09:02:36.437Z,3.67
2022-12-19T09:07:45.628Z,3.97
2022-12-19T09:12:57.767Z,3.71
2022-12-19T09:18:04.810Z,3.69
2022-12-19T09:23:04.469Z,3.91
2022-12-19T09:28:28.052Z,3.32
2022-12-19T09:33:24.341Z,3.65
2022-12-19T09:38:24.677Z,3.70
2022-12-19T09:43:23.565Z,3.24
2022-12-19T09:48:33.397Z,3.30
2022-12-19T09:53:43.543Z,3.60
2022-12-19T09:58:43.231Z,3.20
2022-12-19T10:03:52.808Z,3.34
2022-12-19T10:09:43.968Z,3.53
2022-12-19T10:14:11.266Z,3.09
2022-12-19T10:19:20.589Z,3.50
2022-12-19T10:24:34.846Z,3.50
2022-12-19T10:29:38.806Z,3.36
2022-12-19T10:34:48.584Z,3.72
2022-12-19T10:39:57.845Z,3.87
2022-12-19T10:45:07.098Z,3.60
2022-12-19T10:50:17.174Z,3.60
2022-12-19T10:55:16.428Z,3.62
2022-12-19T11:00:27.253Z,3.96
2022-12-19T11:05:26.420Z,3.86
2022-12-19T11:11:51.188Z,3.57
2022-12-19T11:21:27.028Z,3.61
2022-12-19T11:29:40.134Z,3.37
2022-12-19T11:30:59.412Z,3.15
2022-12-19T11:36:21.368Z,3.39
2022-12-19T11:41:31.015Z,3.59
2022-12-19T11:46:40.376Z,3.94
2022-12-19T11:51:50.077Z,3.82
2022-12-19T11:56:59.586Z,3.48
2022-12-19T12:02:09.499Z,3.65
2022-12-19T12:07:49.720Z,3.69
2022-12-19T12:17:24.369Z,3.86
2022-12-19T12:30:55.028Z,3.99
2022-12-19T12:31:15.934Z,4.34
2022-12-19T12:31:49.210Z,4.77
2022-12-19T12:35:31.647Z,4.96
2022-12-19T12:38:23.600Z,13.05
2022-12-19T12:43:10.780Z,14.96
2022-12-19T12:48:20.141Z,7.93
2022-12-19T12:53:29.615Z,5.35
2022-12-19T12:58:39.228Z,7.23
2022-12-19T13:03:48.408Z,7.47
2022-12-19T13:08:57.305Z,9.39
2022-12-19T13:14:06.870Z,11.18
2022-12-19T13:19:19.678Z,7.00
2022-12-19T13:24:25.076Z,5.64
2022-12-19T13:29:34.427Z,4.70
2022-12-19T13:34:46.779Z,4.12
2022-12-19T13:40:07.430Z,4.94
2022-12-19T13:45:01.189Z,6.56
2022-12-19T13:50:10.335Z,5.85
2022-12-19T13:55:19.197Z,6.81
2022-12-19T14:00:27.913Z,6.13
2022-12-19T14:06:16.096Z,5.43
2022-12-19T14:11:32.574Z,5.56
2022-12-19T14:15:55.292Z,4.67
2022-12-19T14:22:04.810Z,3.80
2022-12-19T14:28:19.582Z,4.47
2022-12-19T14:31:21.627Z,4.49
2022-12-19T14:36:30.467Z,4.83
2022-12-19T14:41:39.459Z,5.26
2022-12-19T14:52:36.054Z,5.78
2022-12-19T14:54:53.976Z,5.03
2022-12-19T14:57:05.838Z,4.88
2022-12-19T15:02:14.613Z,4.83
2022-12-19T15:07:23.292Z,5.21
2022-12-19T15:14:47.270Z,5.13
2022-12-19T15:17:40.545Z,5.02
2022-12-19T15:22:49.328Z,6.97
2022-12-19T15:27:58.115Z,6.30
2022-12-19T15:33:06.893Z,6.15
2022-12-19T15:38:16.183Z,6.03
2022-12-19T15:44:01.693Z,7.41
2022-12-19T15:48:34.326Z,8.84
2022-12-19T15:53:43.135Z,7.19
2022-12-19T15:58:52.522Z,7.56
2022-12-19T16:04:01.265Z,8.09
2022-12-19T16:09:10.033Z,7.86
2022-12-19T16:14:18.743Z,6.66
2022-12-19T16:19:27.856Z,6.72
2022-12-19T16:24:36.626Z,6.14
2022-12-19T16:29:45.480Z,6.92
2022-12-19T16:34:53.823Z,7.37
2022-12-19T16:40:02.430Z,7.25
2022-12-19T16:45:10.768Z,7.39
2022-12-19T16:50:19.744Z,7.75
2022-12-19T16:55:28.191Z,7.44
2022-12-19T17:00:36.801Z,7.06
2022-12-19T17:05:45.020Z,7.26
2022-12-19T17:10:53.607Z,7.37
2022-12-19T17:16:02.057Z,6.88
2022-12-19T17:21:10.855Z,7.26
2022-12-19T17:26:19.349Z,8.22
2022-12-19T17:31:28.747Z,7.94
2022-12-19T17:36:38.014Z,6.88
2022-12-19T17:41:45.888Z,6.67
2022-12-19T17:46:54.056Z,6.73
2022-12-19T17:52:03.485Z,6.51
2022-12-19T17:57:11.650Z,6.59
2022-12-19T18:02:21.324Z,6.37
2022-12-19T18:07:29.807Z,6.21
2022-12-19T18:12:38.724Z,7.11
2022-12-19T18:17:47.389Z,6.57
2022-12-19T18:22:56.963Z,7.11
2022-12-19T18:28:06.056Z,6.78
2022-12-19T18:33:14.578Z,6.51
2022-12-19T18:38:23.414Z,7.86
2022-12-19T18:43:32.992Z,9.63
2022-12-19T18:48:41.351Z,10.69
2022-12-19T18:53:49.787Z,10.04
2022-12-19T18:58:58.519Z,10.62
2022-12-19T19:04:07.502Z,12.36
2022-12-19T19:09:16.406Z,13.54
2022-12-19T19:14:25.335Z,12.56
2022-12-19T19:19:34.144Z,11.07
2022-12-19T19:24:43.605Z,9.47
2022-12-19T19:29:52.564Z,10.84
2022-12-19T19:35:01.772Z,10.51
2022-12-19T19:40:10.523Z,10.43
2022-12-19T19:45:19.503Z,11.81
2022-12-19T19:50:28.250Z,10.01
2022-12-19T19:55:37.100Z,10.45
2022-12-19T20:00:45.443Z,10.38
2022-12-19T20:05:54.452Z,9.24
2022-12-19T20:11:03.440Z,8.44
2022-12-19T20:16:12.690Z,8.26
2022-12-19T20:21:21.169Z,8.53
2022-12-19T20:26:29.899Z,8.20
2022-12-19T20:31:37.998Z,7.59
2022-12-19T20:36:47.136Z,8.11
2022-12-19T20:41:55.692Z,7.70
2022-12-19T20:47:04.573Z,7.41
2022-12-19T20:52:13.059Z,7.72
2022-12-19T20:57:21.775Z,7.76
2022-12-19T21:02:46.612Z,7.20
2022-12-19T21:07:39.332Z,6.85
2022-12-19T21:12:48.306Z,7.31
2022-12-19T21:17:56.266Z,7.09
2022-12-19T21:23:04.908Z,6.82
2022-12-19T21:28:13.812Z,7.29
2022-12-19T21:33:22.551Z,6.70
2022-12-19T21:38:31.567Z,6.72
2022-12-19T21:43:39.971Z,6.62
2022-12-19T21:48:49.219Z,6.08
2022-12-19T21:53:57.735Z,6.94
2022-12-19T21:59:06.880Z,6.77
2022-12-19T22:04:15.460Z,6.94
2022-12-19T22:09:23.709Z,7.37
2022-12-19T22:14:32.454Z,6.73
2022-12-19T22:19:41.280Z,7.51
2022-12-19T22:24:49.623Z,8.11
2022-12-19T22:29:58.241Z,7.59
2022-12-19T22:35:06.428Z,6.87
2022-12-19T22:40:15.364Z,7.65
2022-12-19T22:45:24.274Z,7.86
2022-12-19T22:50:33.334Z,7.18
2022-12-19T22:55:41.985Z,6.77
2022-12-19T23:00:50.645Z,6.92
2022-12-19T23:05:59.321Z,7.23
2022-12-19T23:11:08.333Z,7.36
2022-12-19T23:16:17.007Z,6.80
2022-12-19T23:21:25.824Z,7.14
2022-12-19T23:26:34.509Z,7.60
2022-12-19T23:31:43.817Z,7.57
2022-12-19T23:37:12.433Z,6.98
2022-12-19T23:42:00.760Z,7.50
2022-12-19T23:47:09.230Z,7.56
2022-12-19T23:52:18.429Z,7.10
2022-12-19T23:57:27.876Z,7.43
